Aviation Digital Data Service (ADDS)

Output produced by METARs form (0129 UTC 06 December 2019)
found at http://www.aviationweather.gov/metar/data/
 
METAR text: KSMF 060053Z 32004KT 10SM SCT049 BKN055 OVC200 13/11 A3006 RMK AO2 SLP177 T01330111
Conditions at: KSMF (SACRAMENTO/METRO, CA, US) observed 0053 UTC 06 December 2019
Temperature: 13.3°C (56°F)
Dewpoint: 11.1°C (52°F) [RH = 87%]
Pressure (altimeter): 30.06 inches Hg (1018.0 mb)
[Sea-level pressure: 1017.7 mb]
Winds: from the NW (320 degrees) at 5 MPH (4 knots; 2.1 m/s)
Visibility: 10 or more miles (16+ km)
Ceiling: 5500 feet AGL
Clouds: scattered clouds at 4900 feet AGL
broken clouds at 5500 feet AGL
overcast cloud deck at 20000 feet AGL
Weather: no significant weather observed at this time

METAR text: KSMF 052353Z 31003KT 9SM BKN045 OVC200 15/11 A3005 RMK AO2 SLP176 T01500111 10167 20128 56007
Conditions at: KSMF (SACRAMENTO/METRO, CA, US) observed 2353 UTC 05 December 2019
Temperature: 15.0°C (59°F)
Dewpoint: 11.1°C (52°F) [RH = 77%]
Pressure (altimeter): 30.05 inches Hg (1017.7 mb)
[Sea-level pressure: 1017.6 mb]
Winds: from the NW (310 degrees) at 3 MPH (3 knots; 1.5 m/s)
Visibility: 9 miles (14 km)
Ceiling: 4500 feet AGL
Clouds: broken clouds at 4500 feet AGL
overcast cloud deck at 20000 feet AGL
Weather: no significant weather observed at this time

METAR text: KSMF 052253Z 26004KT 10SM SCT040 OVC200 16/11 A3006 RMK AO2 SLP178 T01560111
Conditions at: KSMF (SACRAMENTO/METRO, CA, US) observed 2253 UTC 05 December 2019
Temperature: 15.6°C (60°F)
Dewpoint: 11.1°C (52°F) [RH = 75%]
Pressure (altimeter): 30.06 inches Hg (1018.0 mb)
[Sea-level pressure: 1017.8 mb]
Winds: from the W (260 degrees) at 5 MPH (4 knots; 2.1 m/s)
Visibility: 10 or more miles (16+ km)
Ceiling: 20000 feet AGL
Clouds: scattered clouds at 4000 feet AGL
overcast cloud deck at 20000 feet AGL
Weather: no significant weather observed at this time

METAR text: KSMF 052216Z 24004KT 10SM SCT029 BKN040 BKN070 16/11 A3006 RMK AO2 T01560111
Conditions at: KSMF (SACRAMENTO/METRO, CA, US) observed 2216 UTC 05 December 2019
Temperature: 15.6°C (60°F)
Dewpoint: 11.1°C (52°F) [RH = 75%]
Pressure (altimeter): 30.06 inches Hg (1018.0 mb)
Winds: from the WSW (240 degrees) at 5 MPH (4 knots; 2.1 m/s)
Visibility: 10 or more miles (16+ km)
Ceiling: 4000 feet AGL
Clouds: scattered clouds at 2900 feet AGL
broken clouds at 4000 feet AGL
broken clouds at 7000 feet AGL
Weather: no significant weather observed at this time

METAR text: KSMF 052215Z 24004KT 10SM SCT029 SCT040 16/11 A3006 RMK AO2 T01560111
Conditions at: KSMF (SACRAMENTO/METRO, CA, US) observed 2215 UTC 05 December 2019
Temperature: 15.6°C (60°F)
Dewpoint: 11.1°C (52°F) [RH = 75%]
Pressure (altimeter): 30.06 inches Hg (1018.0 mb)
Winds: from the WSW (240 degrees) at 5 MPH (4 knots; 2.1 m/s)
Visibility: 10 or more miles (16+ km)
Ceiling: at least 12,000 feet AGL
Clouds: scattered clouds at 2900 feet AGL
scattered clouds at 4000 feet AGL
Weather: no significant weather observed at this time

METAR text: KSMF 052153Z 22006KT 10SM BKN028 OVC190 16/11 A3006 RMK AO2 SLP178 T01610111
Conditions at: KSMF (SACRAMENTO/METRO, CA, US) observed 2153 UTC 05 December 2019
Temperature: 16.1°C (61°F)
Dewpoint: 11.1°C (52°F) [RH = 72%]
Pressure (altimeter): 30.06 inches Hg (1018.0 mb)
[Sea-level pressure: 1017.8 mb]
Winds: from the SW (220 degrees) at 7 MPH (6 knots; 3.1 m/s)
Visibility: 10 or more miles (16+ km)
Ceiling: 2800 feet AGL
Clouds: broken clouds at 2800 feet AGL
overcast cloud deck at 19000 feet AGL
Weather: no significant weather observed at this time

METAR text: KSMF 052143Z 20005KT 10SM BKN029 OVC190 16/11 A3006 RMK AO2 T01610106
Conditions at: KSMF (SACRAMENTO/METRO, CA, US) observed 2143 UTC 05 December 2019
Temperature: 16.1°C (61°F)
Dewpoint: 10.6°C (51°F) [RH = 70%]
Pressure (altimeter): 30.06 inches Hg (1018.0 mb)
Winds: from the SSW (200 degrees) at 6 MPH (5 knots; 2.6 m/s)
Visibility: 10 or more miles (16+ km)
Ceiling: 2900 feet AGL
Clouds: broken clouds at 2900 feet AGL
overcast cloud deck at 19000 feet AGL
Weather: no significant weather observed at this time

METAR text: KSMF 052053Z 16004KT 10SM FEW028 BKN200 16/11 A3007 RMK AO2 SLP183 T01610106 58016
Conditions at: KSMF (SACRAMENTO/METRO, CA, US) observed 2053 UTC 05 December 2019
Temperature: 16.1°C (61°F)
Dewpoint: 10.6°C (51°F) [RH = 70%]
Pressure (altimeter): 30.07 inches Hg (1018.4 mb)
[Sea-level pressure: 1018.3 mb]
Winds: from the SSE (160 degrees) at 5 MPH (4 knots; 2.1 m/s)
Visibility: 10 or more miles (16+ km)
Ceiling: 20000 feet AGL
Clouds: few clouds at 2800 feet AGL
broken clouds at 20000 feet AGL
Weather: no significant weather observed at this time

METAR text: KSMF 051953Z 14005KT 10SM SCT021 BKN240 16/11 A3010 RMK AO2 SLP190 T01610111
Conditions at: KSMF (SACRAMENTO/METRO, CA, US) observed 1953 UTC 05 December 2019
Temperature: 16.1°C (61°F)
Dewpoint: 11.1°C (52°F) [RH = 72%]
Pressure (altimeter): 30.10 inches Hg (1019.4 mb)
[Sea-level pressure: 1019.0 mb]
Winds: from the SE (140 degrees) at 6 MPH (5 knots; 2.6 m/s)
Visibility: 10 or more miles (16+ km)
Ceiling: 24000 feet AGL
Clouds: scattered clouds at 2100 feet AGL
broken clouds at 24000 feet AGL
Weather: no significant weather observed at this time

METAR text: KSMF 051853Z 09005KT 10SM SCT025 BKN240 14/12 A3012 RMK AO2 SLP198 T01440117
Conditions at: KSMF (SACRAMENTO/METRO, CA, US) observed 1853 UTC 05 December 2019
Temperature: 14.4°C (58°F)
Dewpoint: 11.7°C (53°F) [RH = 84%]
Pressure (altimeter): 30.12 inches Hg (1020.1 mb)
[Sea-level pressure: 1019.8 mb]
Winds: from the E (90 degrees) at 6 MPH (5 knots; 2.6 m/s)
Visibility: 10 or more miles (16+ km)
Ceiling: 24000 feet AGL
Clouds: scattered clouds at 2500 feet AGL
broken clouds at 24000 feet AGL
Weather: no significant weather observed at this time

METAR text: KSMF 051753Z 00000KT 10SM OVC025 13/11 A3012 RMK AO2 SLP200 T01280111 10128 20111 52022
Conditions at: KSMF (SACRAMENTO/METRO, CA, US) observed 1753 UTC 05 December 2019
Temperature: 12.8°C (55°F)
Dewpoint: 11.1°C (52°F) [RH = 89%]
Pressure (altimeter): 30.12 inches Hg (1020.1 mb)
[Sea-level pressure: 1020.0 mb]
Winds: calm
Visibility: 10 or more miles (16+ km)
Ceiling: 2500 feet AGL
Clouds: overcast cloud deck at 2500 feet AGL
Weather: no significant weather observed at this time

METAR text: KSMF 051653Z 01003KT 4SM BR FEW002 BKN021 12/11 A3010 RMK AO2 SLP193 T01220111
Conditions at: KSMF (SACRAMENTO/METRO, CA, US) observed 1653 UTC 05 December 2019
Temperature: 12.2°C (54°F)
Dewpoint: 11.1°C (52°F) [RH = 93%]
Pressure (altimeter): 30.10 inches Hg (1019.4 mb)
[Sea-level pressure: 1019.3 mb]
Winds: from the N (10 degrees) at 3 MPH (3 knots; 1.5 m/s)
Visibility: 4 miles ( 6 km)
Ceiling: 2100 feet AGL
Clouds: few clouds at 200 feet AGL
broken clouds at 2100 feet AGL
Weather: BR  (mist)

METAR text: KSMF 051645Z 02004KT 3SM BR FEW002 OVC021 12/11 A3010 RMK AO2 T01170111
Conditions at: KSMF (SACRAMENTO/METRO, CA, US) observed 1645 UTC 05 December 2019
Temperature: 11.7°C (53°F)
Dewpoint: 11.1°C (52°F) [RH = 96%]
Pressure (altimeter): 30.10 inches Hg (1019.4 mb)
Winds: from the NNE (20 degrees) at 5 MPH (4 knots; 2.1 m/s)
Visibility: 3 miles ( 5 km)
Ceiling: 2100 feet AGL
Clouds: few clouds at 200 feet AGL
overcast cloud deck at 2100 feet AGL
Weather: BR  (mist)

METAR text: KSMF 051553Z 00000KT 3SM BR BKN023 11/11 A3008 RMK AO2 SLP184 T01110106
Conditions at: KSMF (SACRAMENTO/METRO, CA, US) observed 1553 UTC 05 December 2019
Temperature: 11.1°C (52°F)
Dewpoint: 10.6°C (51°F) [RH = 97%]
Pressure (altimeter): 30.08 inches Hg (1018.7 mb)
[Sea-level pressure: 1018.4 mb]
Winds: calm
Visibility: 3 miles ( 5 km)
Ceiling: 2300 feet AGL
Clouds: broken clouds at 2300 feet AGL
Weather: BR  (mist)

METAR text: KSMF 051453Z COR 33003KT 4SM BR OVC024 11/11 A3006 RMK AO2 SLP178 T01110111 53009
Conditions at: KSMF (SACRAMENTO/METRO, CA, US) observed 1453 UTC 05 December 2019
Temperature: 11.1°C (52°F)
Dewpoint: 11.1°C (52°F) [RH = 100%]
Pressure (altimeter): 30.06 inches Hg (1018.0 mb)
[Sea-level pressure: 1017.8 mb]
Winds: from the NNW (330 degrees) at 3 MPH (3 knots; 1.5 m/s)
Visibility: 4 miles ( 6 km)
Ceiling: 2400 feet AGL
Clouds: overcast cloud deck at 2400 feet AGL
Weather: BR  (mist)

METAR text: KSMF 051353Z 32003KT 8SM BKN020 OVC030 12/11 A3004 RMK AO2 SLP173 T01170111
Conditions at: KSMF (SACRAMENTO/METRO, CA, US) observed 1353 UTC 05 December 2019
Temperature: 11.7°C (53°F)
Dewpoint: 11.1°C (52°F) [RH = 96%]
Pressure (altimeter): 30.04 inches Hg (1017.4 mb)
[Sea-level pressure: 1017.3 mb]
Winds: from the NW (320 degrees) at 3 MPH (3 knots; 1.5 m/s)
Visibility: 8 miles (13 km)
Ceiling: 2000 feet AGL
Clouds: broken clouds at 2000 feet AGL
overcast cloud deck at 3000 feet AGL
Weather: no significant weather observed at this time

METAR text: KSMF 051253Z 32004KT 3SM BR OVC020 11/11 A3003 RMK AO2 SLP168 T01110111
Conditions at: KSMF (SACRAMENTO/METRO, CA, US) observed 1253 UTC 05 December 2019
Temperature: 11.1°C (52°F)
Dewpoint: 11.1°C (52°F) [RH = 100%]
Pressure (altimeter): 30.03 inches Hg (1017.0 mb)
[Sea-level pressure: 1016.8 mb]
Winds: from the NW (320 degrees) at 5 MPH (4 knots; 2.1 m/s)
Visibility: 3 miles ( 5 km)
Ceiling: 2000 feet AGL
Clouds: overcast cloud deck at 2000 feet AGL
Weather: BR  (mist)

METAR text: KSMF 051250Z 31004KT 3SM BR OVC020 11/11 A3003 RMK AO2
Conditions at: KSMF (SACRAMENTO/METRO, CA, US) observed 1250 UTC 05 December 2019
Temperature: 11.0°C (52°F)
Dewpoint: 11.0°C (52°F) [RH = 100%]
Pressure (altimeter): 30.03 inches Hg (1017.0 mb)
Winds: from the NW (310 degrees) at 5 MPH (4 knots; 2.1 m/s)
Visibility: 3 miles ( 5 km)
Ceiling: 2000 feet AGL
Clouds: overcast cloud deck at 2000 feet AGL
Weather: BR  (mist)

METAR text: KSMF 051153Z 32004KT 1 1/4SM BR FEW003 OVC020 11/11 A3002 RMK AO2 SLP166 70033 T01110106 10117 20100 51010
Conditions at: KSMF (SACRAMENTO/METRO, CA, US) observed 1153 UTC 05 December 2019
Temperature: 11.1°C (52°F)
Dewpoint: 10.6°C (51°F) [RH = 97%]
Pressure (altimeter): 30.02 inches Hg (1016.7 mb)
[Sea-level pressure: 1016.6 mb]
Winds: from the NW (320 degrees) at 5 MPH (4 knots; 2.1 m/s)
Visibility: 1.25 miles (2.01 km)
Ceiling: 2000 feet AGL
Clouds: few clouds at 300 feet AGL
overcast cloud deck at 2000 feet AGL
Weather: BR  (mist)

METAR text: KSMF 051118Z 32005KT 1 1/4SM BR FEW003 SCT010 OVC020 10/10 A3002 RMK AO2 T01000100
Conditions at: KSMF (SACRAMENTO/METRO, CA, US) observed 1118 UTC 05 December 2019
Temperature: 10.0°C (50°F)
Dewpoint: 10.0°C (50°F) [RH = 100%]
Pressure (altimeter): 30.02 inches Hg (1016.7 mb)
Winds: from the NW (320 degrees) at 6 MPH (5 knots; 2.6 m/s)
Visibility: 1.25 miles (2.01 km)
Ceiling: 2000 feet AGL
Clouds: few clouds at 300 feet AGL
scattered clouds at 1000 feet AGL
overcast cloud deck at 2000 feet AGL
Weather: BR  (mist)

METAR text: KSMF 051110Z COR 33005KT 2 1/2SM BR BKN020 BKN070 10/10 A3002 RMK AO2 T01000100
Conditions at: KSMF (SACRAMENTO/METRO, CA, US) observed 1110 UTC 05 December 2019
Temperature: 10.0°C (50°F)
Dewpoint: 10.0°C (50°F) [RH = 100%]
Pressure (altimeter): 30.02 inches Hg (1016.7 mb)
Winds: from the NNW (330 degrees) at 6 MPH (5 knots; 2.6 m/s)
Visibility: 2.50 miles (4.02 km)
Ceiling: 2000 feet AGL
Clouds: broken clouds at 2000 feet AGL
broken clouds at 7000 feet AGL
Weather: BR  (mist)

METAR text: KSMF 051053Z 33004KT 4SM BR BKN020 BKN070 11/11 A3002 RMK AO2 SLP163 T01110106
Conditions at: KSMF (SACRAMENTO/METRO, CA, US) observed 1053 UTC 05 December 2019
Temperature: 11.1°C (52°F)
Dewpoint: 10.6°C (51°F) [RH = 97%]
Pressure (altimeter): 30.02 inches Hg (1016.7 mb)
[Sea-level pressure: 1016.3 mb]
Winds: from the NNW (330 degrees) at 5 MPH (4 knots; 2.1 m/s)
Visibility: 4 miles ( 6 km)
Ceiling: 2000 feet AGL
Clouds: broken clouds at 2000 feet AGL
broken clouds at 7000 feet AGL
Weather: BR  (mist)

METAR text: KSMF 050953Z 32003KT 4SM BR BKN020 OVC030 12/11 A3001 RMK AO2 SLP162 T01170111
Conditions at: KSMF (SACRAMENTO/METRO, CA, US) observed 0953 UTC 05 December 2019
Temperature: 11.7°C (53°F)
Dewpoint: 11.1°C (52°F) [RH = 96%]
Pressure (altimeter): 30.01 inches Hg (1016.3 mb)
[Sea-level pressure: 1016.2 mb]
Winds: from the NW (320 degrees) at 3 MPH (3 knots; 1.5 m/s)
Visibility: 4 miles ( 6 km)
Ceiling: 2000 feet AGL
Clouds: broken clouds at 2000 feet AGL
overcast cloud deck at 3000 feet AGL
Weather: BR  (mist)

METAR text: KSMF 050853Z 00000KT 6SM BR BKN020 OVC030 12/11 A3000 RMK AO2 SLP157 T01170111 51008
Conditions at: KSMF (SACRAMENTO/METRO, CA, US) observed 0853 UTC 05 December 2019
Temperature: 11.7°C (53°F)
Dewpoint: 11.1°C (52°F) [RH = 96%]
Pressure (altimeter): 30.00 inches Hg (1016.0 mb)
[Sea-level pressure: 1015.7 mb]
Winds: calm
Visibility: 6 miles (10 km)
Ceiling: 2000 feet AGL
Clouds: broken clouds at 2000 feet AGL
overcast cloud deck at 3000 feet AGL
Weather: BR  (mist)

METAR text: KSMF 050831Z 00000KT 6SM BR BKN020 OVC030 12/11 A3000 RMK AO2 T01170111
Conditions at: KSMF (SACRAMENTO/METRO, CA, US) observed 0831 UTC 05 December 2019
Temperature: 11.7°C (53°F)
Dewpoint: 11.1°C (52°F) [RH = 96%]
Pressure (altimeter): 30.00 inches Hg (1016.0 mb)
Winds: calm
Visibility: 6 miles (10 km)
Ceiling: 2000 feet AGL
Clouds: broken clouds at 2000 feet AGL
overcast cloud deck at 3000 feet AGL
Weather: BR  (mist)

METAR text: KSMF 050753Z 00000KT 8SM SCT020 OVC030 12/11 A2999 RMK AO2 SLP155 T01170106 401280100
Conditions at: KSMF (SACRAMENTO/METRO, CA, US) observed 0753 UTC 05 December 2019
Temperature: 11.7°C (53°F)
Dewpoint: 10.6°C (51°F) [RH = 93%]
Pressure (altimeter): 29.99 inches Hg (1015.7 mb)
[Sea-level pressure: 1015.5 mb]
Winds: calm
Visibility: 8 miles (13 km)
Ceiling: 3000 feet AGL
Clouds: scattered clouds at 2000 feet AGL
overcast cloud deck at 3000 feet AGL
Weather: no significant weather observed at this time

METAR text: KSMF 050732Z 00000KT 8SM SCT020 BKN030 OVC085 12/11 A2999 RMK AO2 T01170106
Conditions at: KSMF (SACRAMENTO/METRO, CA, US) observed 0732 UTC 05 December 2019
Temperature: 11.7°C (53°F)
Dewpoint: 10.6°C (51°F) [RH = 93%]
Pressure (altimeter): 29.99 inches Hg (1015.7 mb)
Winds: calm
Visibility: 8 miles (13 km)
Ceiling: 3000 feet AGL
Clouds: scattered clouds at 2000 feet AGL
broken clouds at 3000 feet AGL
overcast cloud deck at 8500 feet AGL
Weather: no significant weather observed at this time

METAR text: KSMF 050653Z 00000KT 6SM BR SCT018 BKN025 OVC085 11/11 A2999 RMK AO2 SLP154 T01110106
Conditions at: KSMF (SACRAMENTO/METRO, CA, US) observed 0653 UTC 05 December 2019
Temperature: 11.1°C (52°F)
Dewpoint: 10.6°C (51°F) [RH = 97%]
Pressure (altimeter): 29.99 inches Hg (1015.7 mb)
[Sea-level pressure: 1015.4 mb]
Winds: calm
Visibility: 6 miles (10 km)
Ceiling: 2500 feet AGL
Clouds: scattered clouds at 1800 feet AGL
broken clouds at 2500 feet AGL
overcast cloud deck at 8500 feet AGL
Weather: BR  (mist)

METAR text: KSMF 050553Z 08004KT 6SM BR SCT018 BKN028 OVC085 12/11 A2997 RMK AO2 SLP148 60005 T01170111 10122 20117 51017
Conditions at: KSMF (SACRAMENTO/METRO, CA, US) observed 0553 UTC 05 December 2019
Temperature: 11.7°C (53°F)
Dewpoint: 11.1°C (52°F) [RH = 96%]
Pressure (altimeter): 29.97 inches Hg (1015.0 mb)
[Sea-level pressure: 1014.8 mb]
Winds: from the E (80 degrees) at 5 MPH (4 knots; 2.1 m/s)
Visibility: 6 miles (10 km)
Ceiling: 2800 feet AGL
Clouds: scattered clouds at 1800 feet AGL
broken clouds at 2800 feet AGL
overcast cloud deck at 8500 feet AGL
Weather: BR  (mist)

METAR text: KSMF 050453Z 08005KT 7SM SCT005 OVC029 12/11 A2996 RMK AO2 SLP145 T01170111
Conditions at: KSMF (SACRAMENTO/METRO, CA, US) observed 0453 UTC 05 December 2019
Temperature: 11.7°C (53°F)
Dewpoint: 11.1°C (52°F) [RH = 96%]
Pressure (altimeter): 29.96 inches Hg (1014.6 mb)
[Sea-level pressure: 1014.5 mb]
Winds: from the E (80 degrees) at 6 MPH (5 knots; 2.6 m/s)
Visibility: 7 miles (11 km)
Ceiling: 2900 feet AGL
Clouds: scattered clouds at 500 feet AGL
overcast cloud deck at 2900 feet AGL
Weather: no significant weather observed at this time

METAR text: KSMF 050353Z 03003KT 9SM SCT005 OVC029 12/11 A2994 RMK AO2 RAE50 SLP137 P0000 T01170111
Conditions at: KSMF (SACRAMENTO/METRO, CA, US) observed 0353 UTC 05 December 2019
Temperature: 11.7°C (53°F)
Dewpoint: 11.1°C (52°F) [RH = 96%]
Pressure (altimeter): 29.94 inches Hg (1014.0 mb)
[Sea-level pressure: 1013.7 mb]
Winds: from the NNE (30 degrees) at 3 MPH (3 knots; 1.5 m/s)
Visibility: 9 miles (14 km)
Ceiling: 2900 feet AGL
Clouds: scattered clouds at 500 feet AGL
overcast cloud deck at 2900 feet AGL
Weather: no significant weather observed at this time

METAR text: KSMF 050332Z 05004KT 6SM -RA BR SCT005 BKN019 OVC029 12/11 A2993 RMK AO2 P0000 T01170111
Conditions at: KSMF (SACRAMENTO/METRO, CA, US) observed 0332 UTC 05 December 2019
Temperature: 11.7°C (53°F)
Dewpoint: 11.1°C (52°F) [RH = 96%]
Pressure (altimeter): 29.93 inches Hg (1013.6 mb)
Winds: from the NE (50 degrees) at 5 MPH (4 knots; 2.1 m/s)
Visibility: 6 miles (10 km)
Ceiling: 1900 feet AGL
Clouds: scattered clouds at 500 feet AGL
broken clouds at 1900 feet AGL
overcast cloud deck at 2900 feet AGL
Weather: -RA BR  (light rain, mist)

METAR text: KSMF 050253Z 35003KT 4SM -RA BR FEW003 OVC013 12/11 A2992 RMK AO2 SLP131 P0001 60005 T01170111 53020
Conditions at: KSMF (SACRAMENTO/METRO, CA, US) observed 0253 UTC 05 December 2019
Temperature: 11.7°C (53°F)
Dewpoint: 11.1°C (52°F) [RH = 96%]
Pressure (altimeter): 29.92 inches Hg (1013.3 mb)
[Sea-level pressure: 1013.1 mb]
Winds: from the N (350 degrees) at 3 MPH (3 knots; 1.5 m/s)
Visibility: 4 miles ( 6 km)
Ceiling: 1300 feet AGL
Clouds: few clouds at 300 feet AGL
overcast cloud deck at 1300 feet AGL
Weather: -RA BR  (light rain, mist)

METAR text: KSMF 050245Z 35003KT 4SM -RA BR FEW003 OVC013 12/11 A2992 RMK AO2 P0001 T01170111
Conditions at: KSMF (SACRAMENTO/METRO, CA, US) observed 0245 UTC 05 December 2019
Temperature: 11.7°C (53°F)
Dewpoint: 11.1°C (52°F) [RH = 96%]
Pressure (altimeter): 29.92 inches Hg (1013.3 mb)
Winds: from the N (350 degrees) at 3 MPH (3 knots; 1.5 m/s)
Visibility: 4 miles ( 6 km)
Ceiling: 1300 feet AGL
Clouds: few clouds at 300 feet AGL
overcast cloud deck at 1300 feet AGL
Weather: -RA BR  (light rain, mist)

METAR text: KSMF 050153Z 00000KT 2SM -RA BR FEW003 OVC013 12/11 A2990 RMK AO2 SFC VIS 3 SLP125 P0001 T01170111
Conditions at: KSMF (SACRAMENTO/METRO, CA, US) observed 0153 UTC 05 December 2019
Temperature: 11.7°C (53°F)
Dewpoint: 11.1°C (52°F) [RH = 96%]
Pressure (altimeter): 29.90 inches Hg (1012.6 mb)
[Sea-level pressure: 1012.5 mb]
Winds: calm
Visibility: 2.00 miles (3.22 km)
Ceiling: 1300 feet AGL
Clouds: few clouds at 300 feet AGL
overcast cloud deck at 1300 feet AGL
Weather: -RA BR  (light rain, mist)

METAR text: KSMF 050127Z 36003KT 2SM -RA BR FEW003 SCT009 OVC016 12/11 A2990 RMK AO2 SFC VIS 3 P0000 T01170111
Conditions at: KSMF (SACRAMENTO/METRO, CA, US) observed 0127 UTC 05 December 2019
Temperature: 11.7°C (53°F)
Dewpoint: 11.1°C (52°F) [RH = 96%]
Pressure (altimeter): 29.90 inches Hg (1012.6 mb)
Winds: from the N (360 degrees) at 3 MPH (3 knots; 1.5 m/s)
Visibility: 2.00 miles (3.22 km)
Ceiling: 1600 feet AGL
Clouds: few clouds at 300 feet AGL
scattered clouds at 900 feet AGL
overcast cloud deck at 1600 feet AGL
Weather: -RA BR  (light rain, mist)

METAR text: KSMF 050053Z 04005KT 2SM -RA BR BKN003 BKN007 OVC017 12/11 A2988 RMK AO2 SLP117 P0003 T01170111
Conditions at: KSMF (SACRAMENTO/METRO, CA, US) observed 0053 UTC 05 December 2019
Temperature: 11.7°C (53°F)
Dewpoint: 11.1°C (52°F) [RH = 96%]
Pressure (altimeter): 29.88 inches Hg (1011.9 mb)
[Sea-level pressure: 1011.7 mb]
Winds: from the NE (40 degrees) at 6 MPH (5 knots; 2.6 m/s)
Visibility: 2.00 miles (3.22 km)
Ceiling: 300 feet AGL
Clouds: broken clouds at 300 feet AGL
broken clouds at 700 feet AGL
overcast cloud deck at 1700 feet AGL
Weather: -RA BR  (light rain, mist)

METAR text: KSMF 050041Z 05004KT 2SM -RA BR BKN003 OVC009 12/12 A2987 RMK AO2 CIG 003V006 P0003 T01170117
Conditions at: KSMF (SACRAMENTO/METRO, CA, US) observed 0041 UTC 05 December 2019
Temperature: 11.7°C (53°F)
Dewpoint: 11.7°C (53°F) [RH = 100%]
Pressure (altimeter): 29.87 inches Hg (1011.6 mb)
Winds: from the NE (50 degrees) at 5 MPH (4 knots; 2.1 m/s)
Visibility: 2.00 miles (3.22 km)
Ceiling: 300 feet AGL
Clouds: broken clouds at 300 feet AGL
overcast cloud deck at 900 feet AGL
Weather: -RA BR  (light rain, mist)

METAR text: KSMF 050025Z 01003KT 2SM -RA BR BKN006 OVC009 12/12 A2987 RMK AO2 TWR VIS 3 CIG 004V008 P0002 T01170117
Conditions at: KSMF (SACRAMENTO/METRO, CA, US) observed 0025 UTC 05 December 2019
Temperature: 11.7°C (53°F)
Dewpoint: 11.7°C (53°F) [RH = 100%]
Pressure (altimeter): 29.87 inches Hg (1011.6 mb)
Winds: from the N (10 degrees) at 3 MPH (3 knots; 1.5 m/s)
Visibility: 2.00 miles (3.22 km)
Ceiling: 600 feet AGL
Clouds: broken clouds at 600 feet AGL
overcast cloud deck at 900 feet AGL
Weather: -RA BR  (light rain, mist)

METAR text: KSMF 042353Z 03005KT 1 3/4SM -RA BR BKN006 OVC011 12/11 A2986 RMK AO2 TWR VIS 3 SLP111 P0003 60007 T01220111 10128 20111 53004
Conditions at: KSMF (SACRAMENTO/METRO, CA, US) observed 2353 UTC 04 December 2019
Temperature: 12.2°C (54°F)
Dewpoint: 11.1°C (52°F) [RH = 93%]
Pressure (altimeter): 29.86 inches Hg (1011.3 mb)
[Sea-level pressure: 1011.1 mb]
Winds: from the NNE (30 degrees) at 6 MPH (5 knots; 2.6 m/s)
Visibility: 1.75 miles (2.82 km)
Ceiling: 600 feet AGL
Clouds: broken clouds at 600 feet AGL
overcast cloud deck at 1100 feet AGL
Weather: -RA BR  (light rain, mist)

METAR text: KSMF 042340Z 03005KT 1 3/4SM -RA BR BKN006 OVC011 12/11 A2986 RMK AO2 TWR VIS 3 P0003 T01220111
Conditions at: KSMF (SACRAMENTO/METRO, CA, US) observed 2340 UTC 04 December 2019
Temperature: 12.2°C (54°F)
Dewpoint: 11.1°C (52°F) [RH = 93%]
Pressure (altimeter): 29.86 inches Hg (1011.3 mb)
Winds: from the NNE (30 degrees) at 6 MPH (5 knots; 2.6 m/s)
Visibility: 1.75 miles (2.82 km)
Ceiling: 600 feet AGL
Clouds: broken clouds at 600 feet AGL
overcast cloud deck at 1100 feet AGL
Weather: -RA BR  (light rain, mist)

METAR text: KSMF 042318Z 03006KT 2 1/2SM -RA BR SCT004 BKN009 OVC035 12/11 A2986 RMK AO2 TWR VIS 3 P0001 T01220111
Conditions at: KSMF (SACRAMENTO/METRO, CA, US) observed 2318 UTC 04 December 2019
Temperature: 12.2°C (54°F)
Dewpoint: 11.1°C (52°F) [RH = 93%]
Pressure (altimeter): 29.86 inches Hg (1011.3 mb)
Winds: from the NNE (30 degrees) at 7 MPH (6 knots; 3.1 m/s)
Visibility: 2.50 miles (4.02 km)
Ceiling: 900 feet AGL
Clouds: scattered clouds at 400 feet AGL
broken clouds at 900 feet AGL
overcast cloud deck at 3500 feet AGL
Weather: -RA BR  (light rain, mist)

METAR text: KSMF 042311Z 04006KT 2 1/2SM -RA BR SCT004 BKN011 OVC035 12/12 A2986 RMK AO2 TWR VIS 3 P0001 T01220117
Conditions at: KSMF (SACRAMENTO/METRO, CA, US) observed 2311 UTC 04 December 2019
Temperature: 12.2°C (54°F)
Dewpoint: 11.7°C (53°F) [RH = 97%]
Pressure (altimeter): 29.86 inches Hg (1011.3 mb)
Winds: from the NE (40 degrees) at 7 MPH (6 knots; 3.1 m/s)
Visibility: 2.50 miles (4.02 km)
Ceiling: 1100 feet AGL
Clouds: scattered clouds at 400 feet AGL
broken clouds at 1100 feet AGL
overcast cloud deck at 3500 feet AGL
Weather: -RA BR  (light rain, mist)

METAR text: KSMF 042253Z 01005KT 8SM -RA SCT007 BKN011 OVC040 12/11 A2985 RMK AO2 SLP109 P0000 T01220111
Conditions at: KSMF (SACRAMENTO/METRO, CA, US) observed 2253 UTC 04 December 2019
Temperature: 12.2°C (54°F)
Dewpoint: 11.1°C (52°F) [RH = 93%]
Pressure (altimeter): 29.85 inches Hg (1010.9 mb)
[Sea-level pressure: 1010.9 mb]
Winds: from the N (10 degrees) at 6 MPH (5 knots; 2.6 m/s)
Visibility: 8 miles (13 km)
Ceiling: 1100 feet AGL
Clouds: scattered clouds at 700 feet AGL
broken clouds at 1100 feet AGL
overcast cloud deck at 4000 feet AGL
Weather: -RA  (light rain)

METAR text: KSMF 042153Z 36006KT 8SM -RA SCT007 BKN011 OVC055 13/12 A2984 RMK AO2 RAE21B51 SLP105 P0000 T01280117
Conditions at: KSMF (SACRAMENTO/METRO, CA, US) observed 2153 UTC 04 December 2019
Temperature: 12.8°C (55°F)
Dewpoint: 11.7°C (53°F) [RH = 93%]
Pressure (altimeter): 29.84 inches Hg (1010.6 mb)
[Sea-level pressure: 1010.5 mb]
Winds: from the N (360 degrees) at 7 MPH (6 knots; 3.1 m/s)
Visibility: 8 miles (13 km)
Ceiling: 1100 feet AGL
Clouds: scattered clouds at 700 feet AGL
broken clouds at 1100 feet AGL
overcast cloud deck at 5500 feet AGL
Weather: -RA  (light rain)

METAR text: KSMF 042107Z 33007KT 3SM -RA BR BKN005 BKN041 OVC050 12/11 A2985 RMK AO2 P0000 T01220111
Conditions at: KSMF (SACRAMENTO/METRO, CA, US) observed 2107 UTC 04 December 2019
Temperature: 12.2°C (54°F)
Dewpoint: 11.1°C (52°F) [RH = 93%]
Pressure (altimeter): 29.85 inches Hg (1010.9 mb)
Winds: from the NNW (330 degrees) at 8 MPH (7 knots; 3.6 m/s)
Visibility: 3 miles ( 5 km)
Ceiling: 500 feet AGL
Clouds: broken clouds at 500 feet AGL
broken clouds at 4100 feet AGL
overcast cloud deck at 5000 feet AGL
Weather: -RA BR  (light rain, mist)

METAR text: KSMF 042053Z 33007KT 3SM -RA BR FEW005 BKN040 OVC070 12/11 A2985 RMK AO2 SLP108 P0004 60004 T01220111 56015
Conditions at: KSMF (SACRAMENTO/METRO, CA, US) observed 2053 UTC 04 December 2019
Temperature: 12.2°C (54°F)
Dewpoint: 11.1°C (52°F) [RH = 93%]
Pressure (altimeter): 29.85 inches Hg (1010.9 mb)
[Sea-level pressure: 1010.8 mb]
Winds: from the NNW (330 degrees) at 8 MPH (7 knots; 3.6 m/s)
Visibility: 3 miles ( 5 km)
Ceiling: 4000 feet AGL
Clouds: few clouds at 500 feet AGL
broken clouds at 4000 feet AGL
overcast cloud deck at 7000 feet AGL
Weather: -RA BR  (light rain, mist)

METAR text: KSMF 042041Z 34007KT 3SM -RA BR SCT005 BKN018 OVC055 12/11 A2986 RMK AO2 P0003 T01170111
Conditions at: KSMF (SACRAMENTO/METRO, CA, US) observed 2041 UTC 04 December 2019
Temperature: 11.7°C (53°F)
Dewpoint: 11.1°C (52°F) [RH = 96%]
Pressure (altimeter): 29.86 inches Hg (1011.3 mb)
Winds: from the NNW (340 degrees) at 8 MPH (7 knots; 3.6 m/s)
Visibility: 3 miles ( 5 km)
Ceiling: 1800 feet AGL
Clouds: scattered clouds at 500 feet AGL
broken clouds at 1800 feet AGL
overcast cloud deck at 5500 feet AGL
Weather: -RA BR  (light rain, mist)

METAR text: KSMF 042025Z 33006KT 2 1/2SM -RA BR BKN005 BKN018 OVC055 12/11 A2987 RMK AO2 P0002 T01170111
Conditions at: KSMF (SACRAMENTO/METRO, CA, US) observed 2025 UTC 04 December 2019
Temperature: 11.7°C (53°F)
Dewpoint: 11.1°C (52°F) [RH = 96%]
Pressure (altimeter): 29.87 inches Hg (1011.6 mb)
Winds: from the NNW (330 degrees) at 7 MPH (6 knots; 3.1 m/s)
Visibility: 2.50 miles (4.02 km)
Ceiling: 500 feet AGL
Clouds: broken clouds at 500 feet AGL
broken clouds at 1800 feet AGL
overcast cloud deck at 5500 feet AGL
Weather: -RA BR  (light rain, mist)

METAR text: KSMF 041953Z 32005KT 7SM -RA BKN004 OVC021 12/11 A2988 RMK AO2 RAB38 SLP116 P0000 T01170111
Conditions at: KSMF (SACRAMENTO/METRO, CA, US) observed 1953 UTC 04 December 2019
Temperature: 11.7°C (53°F)
Dewpoint: 11.1°C (52°F) [RH = 96%]
Pressure (altimeter): 29.88 inches Hg (1011.9 mb)
[Sea-level pressure: 1011.6 mb]
Winds: from the NW (320 degrees) at 6 MPH (5 knots; 2.6 m/s)
Visibility: 7 miles (11 km)
Ceiling: 400 feet AGL
Clouds: broken clouds at 400 feet AGL
overcast cloud deck at 2100 feet AGL
Weather: -RA  (light rain)

METAR text: KSMF 041939Z 30005KT 7SM -RA BKN003 OVC022 12/11 A2988 RMK AO2 RAB38 P0000 T01170111
Conditions at: KSMF (SACRAMENTO/METRO, CA, US) observed 1939 UTC 04 December 2019
Temperature: 11.7°C (53°F)
Dewpoint: 11.1°C (52°F) [RH = 96%]
Pressure (altimeter): 29.88 inches Hg (1011.9 mb)
Winds: from the WNW (300 degrees) at 6 MPH (5 knots; 2.6 m/s)
Visibility: 7 miles (11 km)
Ceiling: 300 feet AGL
Clouds: broken clouds at 300 feet AGL
overcast cloud deck at 2200 feet AGL
Weather: -RA  (light rain)

METAR text: KSMF 041913Z 33006KT 7SM SCT003 BKN022 OVC065 12/11 A2989 RMK AO2 T01170106
Conditions at: KSMF (SACRAMENTO/METRO, CA, US) observed 1913 UTC 04 December 2019
Temperature: 11.7°C (53°F)
Dewpoint: 10.6°C (51°F) [RH = 93%]
Pressure (altimeter): 29.89 inches Hg (1012.3 mb)
Winds: from the NNW (330 degrees) at 7 MPH (6 knots; 3.1 m/s)
Visibility: 7 miles (11 km)
Ceiling: 2200 feet AGL
Clouds: scattered clouds at 300 feet AGL
broken clouds at 2200 feet AGL
overcast cloud deck at 6500 feet AGL
Weather: no significant weather observed at this time

METAR text: KSMF 041853Z 35006KT 7SM BKN003 OVC065 12/11 A2989 RMK AO2 RAE43 SLP122 P0000 T01170106
Conditions at: KSMF (SACRAMENTO/METRO, CA, US) observed 1853 UTC 04 December 2019
Temperature: 11.7°C (53°F)
Dewpoint: 10.6°C (51°F) [RH = 93%]
Pressure (altimeter): 29.89 inches Hg (1012.3 mb)
[Sea-level pressure: 1012.2 mb]
Winds: from the N (350 degrees) at 7 MPH (6 knots; 3.1 m/s)
Visibility: 7 miles (11 km)
Ceiling: 300 feet AGL
Clouds: broken clouds at 300 feet AGL
overcast cloud deck at 6500 feet AGL
Weather: no significant weather observed at this time

METAR text: KSMF 041753Z 00000KT 5SM -RA BR FEW005 SCT050 OVC070 11/11 A2991 RMK AO2 SLP128 P0004 60021 T01110106 10111 20100 53009
Conditions at: KSMF (SACRAMENTO/METRO, CA, US) observed 1753 UTC 04 December 2019
Temperature: 11.1°C (52°F)
Dewpoint: 10.6°C (51°F) [RH = 97%]
Pressure (altimeter): 29.91 inches Hg (1013.0 mb)
[Sea-level pressure: 1012.8 mb]
Winds: calm
Visibility: 5 miles ( 8 km)
Ceiling: 7000 feet AGL
Clouds: few clouds at 500 feet AGL
scattered clouds at 5000 feet AGL
overcast cloud deck at 7000 feet AGL
Weather: -RA BR  (light rain, mist)

METAR text: KSMF 041742Z 35005KT 4SM -RA BR SCT003 BKN060 OVC075 11/11 A2990 RMK AO2 P0004 T01110106
Conditions at: KSMF (SACRAMENTO/METRO, CA, US) observed 1742 UTC 04 December 2019
Temperature: 11.1°C (52°F)
Dewpoint: 10.6°C (51°F) [RH = 97%]
Pressure (altimeter): 29.90 inches Hg (1012.6 mb)
Winds: from the N (350 degrees) at 6 MPH (5 knots; 2.6 m/s)
Visibility: 4 miles ( 6 km)
Ceiling: 6000 feet AGL
Clouds: scattered clouds at 300 feet AGL
broken clouds at 6000 feet AGL
overcast cloud deck at 7500 feet AGL
Weather: -RA BR  (light rain, mist)

METAR text: KSMF 041653Z 35003KT 3SM -RA BR OVC003 11/10 A2990 RMK AO2 SLP124 P0006 T01060100
Conditions at: KSMF (SACRAMENTO/METRO, CA, US) observed 1653 UTC 04 December 2019
Temperature: 10.6°C (51°F)
Dewpoint: 10.0°C (50°F) [RH = 96%]
Pressure (altimeter): 29.90 inches Hg (1012.6 mb)
[Sea-level pressure: 1012.4 mb]
Winds: from the N (350 degrees) at 3 MPH (3 knots; 1.5 m/s)
Visibility: 3 miles ( 5 km)
Ceiling: 300 feet AGL
Clouds: overcast cloud deck at 300 feet AGL
Weather: -RA BR  (light rain, mist)

METAR text: KSMF 041553Z 02003KT 3SM -RA BR OVC003 11/10 A2989 RMK AO2 SLP121 P0004 T01060100
Conditions at: KSMF (SACRAMENTO/METRO, CA, US) observed 1553 UTC 04 December 2019
Temperature: 10.6°C (51°F)
Dewpoint: 10.0°C (50°F) [RH = 96%]
Pressure (altimeter): 29.89 inches Hg (1012.3 mb)
[Sea-level pressure: 1012.1 mb]
Winds: from the NNE (20 degrees) at 3 MPH (3 knots; 1.5 m/s)
Visibility: 3 miles ( 5 km)
Ceiling: 300 feet AGL
Clouds: overcast cloud deck at 300 feet AGL
Weather: -RA BR  (light rain, mist)

METAR text: KSMF 041527Z 01005KT 3SM -RA BR OVC003 11/10 A2989 RMK AO2 P0002 T01060100
Conditions at: KSMF (SACRAMENTO/METRO, CA, US) observed 1527 UTC 04 December 2019
Temperature: 10.6°C (51°F)
Dewpoint: 10.0°C (50°F) [RH = 96%]
Pressure (altimeter): 29.89 inches Hg (1012.3 mb)
Winds: from the N (10 degrees) at 6 MPH (5 knots; 2.6 m/s)
Visibility: 3 miles ( 5 km)
Ceiling: 300 feet AGL
Clouds: overcast cloud deck at 300 feet AGL
Weather: -RA BR  (light rain, mist)

METAR text: KSMF 041453Z 35005KT 2 1/2SM -RA BR OVC002 11/10 A2988 RMK AO2 SLP118 P0004 60007 T01060100 55008
Conditions at: KSMF (SACRAMENTO/METRO, CA, US) observed 1453 UTC 04 December 2019
Temperature: 10.6°C (51°F)
Dewpoint: 10.0°C (50°F) [RH = 96%]
Pressure (altimeter): 29.88 inches Hg (1011.9 mb)
[Sea-level pressure: 1011.8 mb]
Winds: from the N (350 degrees) at 6 MPH (5 knots; 2.6 m/s)
Visibility: 2.50 miles (4.02 km)
Ceiling: 200 feet AGL
Clouds: overcast cloud deck at 200 feet AGL
Weather: -RA BR  (light rain, mist)

METAR text: KSMF 041430Z 00000KT 2SM -RA BR OVC002 11/10 A2988 RMK AO2 P0002 T01060100
Conditions at: KSMF (SACRAMENTO/METRO, CA, US) observed 1430 UTC 04 December 2019
Temperature: 10.6°C (51°F)
Dewpoint: 10.0°C (50°F) [RH = 96%]
Pressure (altimeter): 29.88 inches Hg (1011.9 mb)
Winds: calm
Visibility: 2.00 miles (3.22 km)
Ceiling: 200 feet AGL
Clouds: overcast cloud deck at 200 feet AGL
Weather: -RA BR  (light rain, mist)

METAR text: KSMF 041353Z 36004KT 2SM -RA BR FEW050 BKN075 OVC090 10/09 A2988 RMK AO2 SLP117 P0002 T01000094
Conditions at: KSMF (SACRAMENTO/METRO, CA, US) observed 1353 UTC 04 December 2019
Temperature: 10.0°C (50°F)
Dewpoint: 9.4°C (49°F) [RH = 96%]
Pressure (altimeter): 29.88 inches Hg (1011.9 mb)
[Sea-level pressure: 1011.7 mb]
Winds: from the N (360 degrees) at 5 MPH (4 knots; 2.1 m/s)
Visibility: 2.00 miles (3.22 km)
Ceiling: 7500 feet AGL
Clouds: few clouds at 5000 feet AGL
broken clouds at 7500 feet AGL
overcast cloud deck at 9000 feet AGL
Weather: -RA BR  (light rain, mist)

Forecast for: KSMF (SACRAMENTO/METRO, CA, US)
Text: KSMF 052322Z 0600/0624 VRB04KT P6SM BKN040
Forecast period: 0000 to 0900 UTC 06 December 2019
Forecast type: FROM: standard forecast or significant change
Winds: variable direction winds at 5 MPH (4 knots; 2.1 m/s)
Visibility: 6 or more miles 10+ km)
Ceiling: 4000 feet AGL
Clouds: broken clouds at 4000 feet AGL
Weather: no significant weather forecast for this period
Text: FM060900 VRB03KT 5SM BR OVC050
Forecast period: 0900 to 1700 UTC 06 December 2019
Forecast type: FROM: standard forecast or significant change
Winds: variable direction winds at 3 MPH (3 knots; 1.5 m/s)
Visibility: 5 miles (8 km)
Ceiling: 5000 feet AGL
Clouds: overcast cloud deck at 5000 feet AGL
Weather: BR  (mist)
Text: FM061700 15009KT P6SM OVC050
Forecast period: 1700 UTC 06 December 2019 to 0000 UTC 07 December 2019
Forecast type: FROM: standard forecast or significant change
Winds: from the SSE (150 degrees) at 10 MPH (9 knots; 4.6 m/s)
Visibility: 6 or more miles 10+ km)
Ceiling: 5000 feet AGL
Clouds: overcast cloud deck at 5000 feet AGL
Weather: no significant weather forecast for this period